createdAt,value
2023-02-13T00:00:35.301Z,60.95
2023-02-13T00:03:02.402Z,60.65
2023-02-13T00:05:29.465Z,60.52
2023-02-13T00:07:57.333Z,60.62
2023-02-13T00:10:25.631Z,60.65
2023-02-13T00:12:52.454Z,60.45
2023-02-13T00:15:19.492Z,60.52
2023-02-13T00:17:46.385Z,60.34
2023-02-13T00:20:13.679Z,60.30
2023-02-13T00:22:41.505Z,60.35
2023-02-13T00:25:09.187Z,60.52
2023-02-13T00:27:37.443Z,60.32
2023-02-13T00:30:06.803Z,60.58
2023-02-13T00:32:34.236Z,60.62
2023-02-13T00:35:01.103Z,60.39
2023-02-13T00:37:28.004Z,60.46
2023-02-13T00:39:56.143Z,60.32
2023-02-13T00:42:26.323Z,60.44
2023-02-13T00:44:55.044Z,60.35
2023-02-13T00:47:22.471Z,60.57
2023-02-13T00:49:49.434Z,60.62
2023-02-13T00:52:16.308Z,60.61
2023-02-13T00:54:43.227Z,60.70
2023-02-13T00:57:10.124Z,60.55
2023-02-13T00:59:37.006Z,60.33
2023-02-13T01:02:05.261Z,60.15
2023-02-13T01:04:32.604Z,60.39
2023-02-13T01:06:59.485Z,60.47
2023-02-13T01:09:26.463Z,60.75
2023-02-13T01:11:53.384Z,60.57
2023-02-13T01:14:20.268Z,60.56
2023-02-13T01:16:47.147Z,60.39
2023-02-13T01:19:15.726Z,60.42
2023-02-13T01:21:44.035Z,59.94
2023-02-13T01:24:11.255Z,60.02
2023-02-13T01:26:38.305Z,60.23
2023-02-13T01:29:05.291Z,60.23
2023-02-13T01:31:32.343Z,60.11
2023-02-13T01:34:00.071Z,60.09
2023-02-13T01:36:28.432Z,59.86
2023-02-13T01:38:57.728Z,59.88
2023-02-13T01:41:27.412Z,60.00
2023-02-13T01:43:57.378Z,60.07
2023-02-13T01:46:31.446Z,59.96
2023-02-13T01:49:03.238Z,59.84
2023-02-13T01:51:35.191Z,60.16
2023-02-13T01:54:10.519Z,60.21
2023-02-13T01:56:43.990Z,60.28
2023-02-13T01:59:16.903Z,60.56
2023-02-13T02:01:45.108Z,60.67
2023-02-13T02:04:19.766Z,60.56
2023-02-13T02:06:52.841Z,60.78
2023-02-13T02:09:25.587Z,60.72
2023-02-13T02:12:00.645Z,60.75
2023-02-13T02:14:28.171Z,60.75
2023-02-13T02:16:56.287Z,60.78
2023-02-13T02:19:37.864Z,60.64
2023-02-13T02:22:46.391Z,60.77
2023-02-13T02:26:14.645Z,60.88
2023-02-13T02:29:23.945Z,61.00
2023-02-13T02:32:15.953Z,61.08
2023-02-13T02:34:59.489Z,61.33
2023-02-13T02:37:46.142Z,61.28
2023-02-13T02:40:32.171Z,61.81
2023-02-13T02:43:18.242Z,61.85
2023-02-13T02:45:57.288Z,62.07
2023-02-13T02:48:52.256Z,62.29
2023-02-13T02:51:25.021Z,62.13
2023-02-13T02:54:03.389Z,62.34
2023-02-13T02:56:38.163Z,62.36
2023-02-13T02:59:30.834Z,62.49
2023-02-13T03:02:18.924Z,62.62
2023-02-13T03:05:11.526Z,62.37
2023-02-13T03:07:38.677Z,62.44
2023-02-13T03:10:28.191Z,62.35
2023-02-13T03:13:21.655Z,62.39
2023-02-13T03:16:10.107Z,62.57
2023-02-13T03:18:59.681Z,62.52
2023-02-13T03:22:03.389Z,62.65
2023-02-13T03:24:46.616Z,62.77
2023-02-13T03:27:59.623Z,62.95
2023-02-13T03:30:40.783Z,62.61
2023-02-13T03:33:27.425Z,62.50
2023-02-13T03:36:26.311Z,62.96
2023-02-13T03:39:02.742Z,62.47
2023-02-13T03:41:38.567Z,62.39
2023-02-13T03:44:16.035Z,62.44
2023-02-13T03:46:50.087Z,62.53
2023-02-13T03:49:41.387Z,62.15
2023-02-13T03:52:16.728Z,62.13
2023-02-13T03:55:11.346Z,62.14
2023-02-13T03:58:01.559Z,61.98
2023-02-13T04:00:38.862Z,62.09
2023-02-13T04:03:15.521Z,62.15
2023-02-13T04:05:48.331Z,62.29
2023-02-13T04:08:15.763Z,62.37
2023-02-13T04:10:52.765Z,62.35
2023-02-13T04:13:29.915Z,62.25
2023-02-13T04:16:03.140Z,62.09
2023-02-13T04:18:33.405Z,62.02
2023-02-13T04:21:03.662Z,62.11
2023-02-13T04:23:30.706Z,61.88
2023-02-13T04:26:03.779Z,61.58
2023-02-13T04:28:30.933Z,61.67
2023-02-13T04:30:58.592Z,61.45
2023-02-13T04:33:25.720Z,61.66
2023-02-13T04:35:52.626Z,61.72
2023-02-13T04:38:19.478Z,61.55
2023-02-13T04:40:46.368Z,61.47
2023-02-13T04:43:14.588Z,61.23
2023-02-13T04:45:41.537Z,61.36
2023-02-13T04:48:09.883Z,61.33
2023-02-13T04:50:36.740Z,61.29
2023-02-13T04:53:03.642Z,61.38
2023-02-13T04:55:30.766Z,61.62
2023-02-13T04:57:59.051Z,61.57
2023-02-13T05:00:29.990Z,61.41
2023-02-13T05:03:03.951Z,61.01
2023-02-13T05:05:30.861Z,60.92
2023-02-13T05:07:57.746Z,60.97
2023-02-13T05:10:24.758Z,61.24
2023-02-13T05:12:51.731Z,61.28
2023-02-13T05:15:18.829Z,61.03
2023-02-13T05:17:47.296Z,60.90
2023-02-13T05:20:15.703Z,60.85
2023-02-13T05:23:04.907Z,60.93
2023-02-13T05:25:32.214Z,61.03
2023-02-13T05:27:59.252Z,60.87
2023-02-13T05:30:26.405Z,60.81
2023-02-13T05:32:55.222Z,60.65
2023-02-13T05:35:23.164Z,60.83
2023-02-13T05:37:50.604Z,61.02
2023-02-13T05:40:17.981Z,60.77
2023-02-13T05:42:44.903Z,60.93
2023-02-13T05:45:11.819Z,60.98
2023-02-13T05:47:38.715Z,60.87
2023-02-13T05:50:09.108Z,60.96
2023-02-13T05:52:35.990Z,61.06
2023-02-13T05:55:02.891Z,61.17
2023-02-13T05:57:29.771Z,61.08
2023-02-13T05:59:56.629Z,60.84
2023-02-13T06:02:23.711Z,60.79
2023-02-13T06:04:50.685Z,60.84
2023-02-13T06:07:20.016Z,60.68
2023-02-13T06:09:46.875Z,60.72
2023-02-13T06:12:13.791Z,60.91
2023-02-13T06:14:40.764Z,61.02
2023-02-13T06:17:07.685Z,61.00
2023-02-13T06:19:34.548Z,61.09
2023-02-13T06:22:01.612Z,60.89
2023-02-13T06:24:29.827Z,60.90
2023-02-13T06:26:58.053Z,60.88
2023-02-13T06:29:25.117Z,60.54
2023-02-13T06:31:52.137Z,60.70
2023-02-13T06:34:19.038Z,60.60
2023-02-13T06:36:47.251Z,60.76
2023-02-13T06:39:14.430Z,60.64
2023-02-13T06:41:44.576Z,60.43
2023-02-13T06:44:11.477Z,60.54
2023-02-13T06:46:38.497Z,60.40
2023-02-13T06:49:05.477Z,60.42
2023-02-13T06:51:32.390Z,60.30
2023-02-13T06:53:59.285Z,60.37
2023-02-13T06:56:26.353Z,60.39
2023-02-13T06:58:54.558Z,60.27
2023-02-13T07:01:21.613Z,60.22
2023-02-13T07:03:48.706Z,60.13
2023-02-13T07:06:18.754Z,60.12
2023-02-13T07:08:46.180Z,60.40
2023-02-13T07:11:20.802Z,60.03
2023-02-13T07:13:47.810Z,60.14
2023-02-13T07:16:16.746Z,60.06
2023-02-13T07:18:44.060Z,60.26
2023-02-13T07:21:11.017Z,60.24
2023-02-13T07:23:38.241Z,60.55
2023-02-13T07:26:06.168Z,60.50
2023-02-13T07:28:33.284Z,60.43
2023-02-13T07:31:05.724Z,60.48
2023-02-13T07:33:35.673Z,60.52
2023-02-13T07:36:03.536Z,60.57
2023-02-13T07:38:31.603Z,60.38
2023-02-13T07:40:59.578Z,60.50
2023-02-13T07:43:27.101Z,60.42
2023-02-13T07:45:57.639Z,60.59
2023-02-13T07:48:28.313Z,60.44
2023-02-13T07:51:01.657Z,60.55
2023-02-13T07:53:29.262Z,60.73
2023-02-13T07:56:33.173Z,60.47
2023-02-13T07:59:00.059Z,60.38
2023-02-13T08:01:27.056Z,60.83
2023-02-13T08:03:54.037Z,60.87
2023-02-13T08:06:22.677Z,60.60
2023-02-13T08:09:09.652Z,60.67
2023-02-13T08:11:55.125Z,60.60
2023-02-13T08:14:26.178Z,60.42
2023-02-13T08:16:54.764Z,60.30
2023-02-13T08:19:22.011Z,60.46
2023-02-13T08:21:50.936Z,60.29
2023-02-13T08:24:18.555Z,60.63
2023-02-13T08:26:47.889Z,60.62
2023-02-13T08:29:16.955Z,60.65
2023-02-13T08:31:43.963Z,60.40
2023-02-13T08:34:11.722Z,60.48
2023-02-13T08:36:38.629Z,60.50
2023-02-13T08:39:08.732Z,60.38
2023-02-13T08:41:38.620Z,60.52
2023-02-13T08:44:05.747Z,60.77
2023-02-13T08:46:32.724Z,60.36
2023-02-13T08:48:59.665Z,60.39
2023-02-13T08:51:26.693Z,60.24
2023-02-13T08:53:53.675Z,60.10
2023-02-13T08:56:21.865Z,60.25
2023-02-13T08:58:50.059Z,60.70
2023-02-13T09:01:17.143Z,60.47
2023-02-13T09:03:44.242Z,60.47
2023-02-13T09:06:12.383Z,60.13
2023-02-13T09:08:39.709Z,60.07
2023-02-13T09:11:07.488Z,59.92
2023-02-13T09:13:37.104Z,59.92
2023-02-13T09:16:06.886Z,59.98
2023-02-13T09:18:35.254Z,59.62
2023-02-13T09:21:05.772Z,59.29
2023-02-13T09:23:34.626Z,59.53
2023-02-13T09:26:04.738Z,59.62
2023-02-13T09:28:33.849Z,59.41
2023-02-13T09:31:06.797Z,59.21
2023-02-13T09:33:34.914Z,59.25
2023-02-13T09:36:05.771Z,59.56
2023-02-13T09:38:33.055Z,59.56
2023-02-13T09:41:05.548Z,59.07
2023-02-13T09:43:37.727Z,59.16
2023-02-13T09:46:17.925Z,59.28
2023-02-13T09:48:51.407Z,59.23
2023-02-13T09:51:23.181Z,59.62
2023-02-13T09:53:56.284Z,59.24
2023-02-13T09:56:40.286Z,59.54
2023-02-13T09:59:26.379Z,59.06
2023-02-13T10:02:00.463Z,58.92
2023-02-13T10:04:42.176Z,59.08
2023-02-13T10:07:24.264Z,59.00
2023-02-13T10:10:01.186Z,59.01
2023-02-13T10:13:01.880Z,58.88
2023-02-13T10:15:39.790Z,58.84
2023-02-13T10:18:16.092Z,58.98
2023-02-13T10:20:50.476Z,59.03
2023-02-13T10:23:25.896Z,59.24
2023-02-13T10:25:59.949Z,58.51
2023-02-13T10:28:37.237Z,58.58
2023-02-13T10:31:11.658Z,58.65
2023-02-13T10:33:49.687Z,58.70
2023-02-13T10:36:20.930Z,58.64
2023-02-13T10:39:00.135Z,58.60
2023-02-13T10:41:47.583Z,58.32
2023-02-13T10:44:41.415Z,58.14
2023-02-13T10:47:28.267Z,58.08
2023-02-13T10:50:11.056Z,58.04
2023-02-13T10:52:53.767Z,58.25
2023-02-13T10:55:59.483Z,58.33
2023-02-13T10:58:41.707Z,58.30
2023-02-13T11:01:19.406Z,58.49
2023-02-13T11:03:49.716Z,58.32
2023-02-13T11:06:20.126Z,58.19
2023-02-13T11:08:48.208Z,57.96
2023-02-13T11:11:33.649Z,57.85
2023-02-13T11:14:12.933Z,58.20
2023-02-13T11:16:47.515Z,57.68
2023-02-13T11:19:24.014Z,57.82
2023-02-13T11:21:59.003Z,57.64
2023-02-13T11:24:28.471Z,57.69
2023-02-13T11:27:08.576Z,57.21
2023-02-13T11:29:38.014Z,57.21
2023-02-13T11:32:19.018Z,57.10
2023-02-13T11:34:47.910Z,57.03
2023-02-13T11:37:24.211Z,57.01
2023-02-13T11:39:54.434Z,56.71
2023-02-13T11:42:28.893Z,57.03
2023-02-13T11:45:00.821Z,57.26
2023-02-13T11:47:39.957Z,56.97
2023-02-13T11:50:24.617Z,56.91
2023-02-13T11:53:00.499Z,56.79
2023-02-13T11:55:34.380Z,56.69
2023-02-13T11:58:04.631Z,56.74
2023-02-13T12:00:39.894Z,56.48
2023-02-13T12:03:29.040Z,56.66
2023-02-13T12:06:06.858Z,56.23
2023-02-13T12:08:38.106Z,56.15
2023-02-13T12:11:21.037Z,55.83
2023-02-13T12:13:49.071Z,55.87
2023-02-13T12:16:34.960Z,55.94
2023-02-13T12:19:11.993Z,55.93
2023-02-13T12:22:06.082Z,55.98
2023-02-13T12:25:20.611Z,55.44
2023-02-13T12:28:10.577Z,55.33
2023-02-13T12:31:12.492Z,55.29
2023-02-13T12:34:09.525Z,55.17
2023-02-13T12:36:47.278Z,55.34
2023-02-13T12:39:26.194Z,55.40
2023-02-13T12:42:21.811Z,54.92
2023-02-13T12:45:21.281Z,54.42
2023-02-13T12:48:11.403Z,54.75
2023-02-13T12:50:57.254Z,55.14
2023-02-13T12:53:47.596Z,55.23
2023-02-13T12:56:59.385Z,54.83
2023-02-13T12:59:47.696Z,54.50
2023-02-13T13:03:01.424Z,54.66
2023-02-13T13:05:58.773Z,54.77
2023-02-13T13:08:55.279Z,54.34
2023-02-13T13:11:50.424Z,54.44
2023-02-13T13:14:32.898Z,53.99
2023-02-13T13:17:08.773Z,53.91
2023-02-13T13:19:44.010Z,53.62
2023-02-13T13:22:19.383Z,53.48
2023-02-13T13:25:04.538Z,53.59
2023-02-13T13:27:39.784Z,53.59
2023-02-13T13:30:17.834Z,53.10
2023-02-13T13:32:48.481Z,53.49
2023-02-13T13:35:16.214Z,53.53
2023-02-13T13:38:02.364Z,53.57
2023-02-13T13:40:44.216Z,53.83
2023-02-13T13:43:26.643Z,53.75
2023-02-13T13:46:15.186Z,53.54
2023-02-13T13:49:06.678Z,53.71
2023-02-13T13:51:34.215Z,53.48
2023-02-13T13:54:25.550Z,53.36
2023-02-13T13:57:12.887Z,53.71
2023-02-13T14:00:28.210Z,53.33
2023-02-13T14:03:37.031Z,53.58
2023-02-13T14:06:08.220Z,53.24
2023-02-13T14:09:32.334Z,53.58
2023-02-13T14:12:45.103Z,53.70
2023-02-13T14:15:50.216Z,53.80
2023-02-13T14:18:23.174Z,53.89
2023-02-13T14:20:59.439Z,53.85
2023-02-13T14:23:53.410Z,53.84
2023-02-13T14:26:39.332Z,53.51
2023-02-13T14:29:25.671Z,53.73
2023-02-13T14:32:15.919Z,53.60
2023-02-13T14:34:52.894Z,53.80
2023-02-13T14:37:30.824Z,54.14
2023-02-13T14:40:46.598Z,54.01
2023-02-13T14:43:35.092Z,54.15
2023-02-13T14:46:22.705Z,53.94
2023-02-13T14:48:57.305Z,53.69
2023-02-13T14:51:34.115Z,54.00
2023-02-13T14:54:20.246Z,54.07
2023-02-13T14:56:53.487Z,54.17
2023-02-13T14:59:26.352Z,54.58
2023-02-13T15:02:01.105Z,54.30
2023-02-13T15:04:35.320Z,54.18
2023-02-13T15:07:06.869Z,54.08
2023-02-13T15:09:40.153Z,54.14
2023-02-13T15:12:27.827Z,54.43
2023-02-13T15:14:55.159Z,54.02
2023-02-13T15:17:26.475Z,54.02
2023-02-13T15:19:55.898Z,54.16
2023-02-13T15:22:32.849Z,53.77
2023-02-13T15:25:01.556Z,54.24
2023-02-13T15:27:31.581Z,53.92
2023-02-13T15:30:04.108Z,53.83
2023-02-13T15:32:36.864Z,53.92
2023-02-13T15:35:22.393Z,53.92
2023-02-13T15:37:49.320Z,54.04
2023-02-13T15:40:25.685Z,53.86
2023-02-13T15:42:55.152Z,54.32
2023-02-13T15:45:25.323Z,54.17
2023-02-13T15:47:55.361Z,54.47
2023-02-13T15:50:30.832Z,54.38
2023-02-13T15:53:00.139Z,54.24
2023-02-13T15:55:31.930Z,54.45
2023-02-13T15:58:01.739Z,54.36
2023-02-13T16:00:33.514Z,54.47
2023-02-13T16:03:04.786Z,54.92
2023-02-13T16:05:41.439Z,55.09
2023-02-13T16:08:33.673Z,54.78
2023-02-13T16:11:30.559Z,55.17
2023-02-13T16:14:15.619Z,55.00
2023-02-13T16:16:48.871Z,55.05
2023-02-13T16:19:44.990Z,55.47
2023-02-13T16:22:27.857Z,55.24
2023-02-13T16:25:07.570Z,55.26
2023-02-13T16:27:43.193Z,55.18
2023-02-13T16:30:30.704Z,54.96
2023-02-13T16:33:29.360Z,55.34
2023-02-13T16:35:59.551Z,55.13
2023-02-13T16:38:32.781Z,55.41
2023-02-13T16:41:05.846Z,55.39
2023-02-13T16:43:45.894Z,55.45
2023-02-13T16:46:20.159Z,55.66
2023-02-13T16:49:03.440Z,55.77
2023-02-13T16:51:39.985Z,55.74
2023-02-13T16:54:20.449Z,55.96
2023-02-13T16:56:50.274Z,56.35
2023-02-13T16:59:54.068Z,56.23
2023-02-13T17:02:24.310Z,56.37
2023-02-13T17:04:55.180Z,56.04
2023-02-13T17:07:25.769Z,56.07
2023-02-13T17:09:56.399Z,56.27
2023-02-13T17:12:24.961Z,56.16
2023-02-13T17:14:53.461Z,56.93
2023-02-13T17:17:23.207Z,56.52
2023-02-13T17:19:51.060Z,56.47
2023-02-13T17:22:35.525Z,56.46
2023-02-13T17:25:06.386Z,56.24
2023-02-13T17:27:33.778Z,56.19
2023-02-13T17:30:02.406Z,56.28
2023-02-13T17:32:29.891Z,56.27
2023-02-13T17:34:56.821Z,55.06
2023-02-13T17:37:26.995Z,55.72
2023-02-13T17:39:54.854Z,55.77
2023-02-13T17:42:26.075Z,56.07
2023-02-13T17:44:54.501Z,56.14
2023-02-13T17:47:24.443Z,56.34
2023-02-13T17:49:59.175Z,56.50
2023-02-13T17:52:32.291Z,55.60
2023-02-13T17:54:59.248Z,56.07
2023-02-13T17:57:26.171Z,56.23
2023-02-13T17:59:53.111Z,56.40
2023-02-13T18:02:23.772Z,56.49
2023-02-13T18:04:51.036Z,56.62
2023-02-13T18:07:21.107Z,56.58
2023-02-13T18:09:48.268Z,56.67
2023-02-13T18:12:18.879Z,56.76
2023-02-13T18:14:46.784Z,56.56
2023-02-13T18:17:14.353Z,56.78
2023-02-13T18:19:42.769Z,56.99
2023-02-13T18:22:11.284Z,57.03
2023-02-13T18:24:41.771Z,56.72
2023-02-13T18:27:13.000Z,56.87
2023-02-13T18:29:40.143Z,56.69
2023-02-13T18:32:10.216Z,56.53
2023-02-13T18:34:38.974Z,56.69
2023-02-13T18:37:08.586Z,57.00
2023-02-13T18:39:35.606Z,56.86
2023-02-13T18:42:02.604Z,56.94
2023-02-13T18:44:29.534Z,56.32
2023-02-13T18:46:56.632Z,56.69
2023-02-13T18:49:23.534Z,56.65
2023-02-13T18:51:50.657Z,56.92
2023-02-13T18:54:18.955Z,56.90
2023-02-13T18:56:46.127Z,57.11
2023-02-13T18:59:13.271Z,56.81
2023-02-13T19:01:40.820Z,56.84
2023-02-13T19:04:07.745Z,56.72
2023-02-13T19:06:34.987Z,57.01
2023-02-13T19:09:01.925Z,57.12
2023-02-13T19:11:34.066Z,57.04
2023-02-13T19:14:02.319Z,56.92
2023-02-13T19:16:31.615Z,57.18
2023-02-13T19:19:01.209Z,57.03
2023-02-13T19:21:32.021Z,57.17
2023-02-13T19:23:58.987Z,57.25
2023-02-13T19:26:27.679Z,57.01
2023-02-13T19:28:57.062Z,57.30
2023-02-13T19:31:27.198Z,57.54
2023-02-13T19:33:54.787Z,57.85
2023-02-13T19:36:24.334Z,57.48
2023-02-13T19:38:56.625Z,57.40
2023-02-13T19:41:24.182Z,57.65
2023-02-13T19:43:53.359Z,57.54
2023-02-13T19:46:24.404Z,57.63
2023-02-13T19:48:51.795Z,57.61
2023-02-13T19:51:22.005Z,57.66
2023-02-13T19:53:48.972Z,57.58
2023-02-13T19:56:16.297Z,57.71
2023-02-13T19:58:43.317Z,57.63
2023-02-13T20:01:13.572Z,57.62
2023-02-13T20:03:43.084Z,57.52
2023-02-13T20:06:13.264Z,57.90
2023-02-13T20:08:43.079Z,57.84
2023-02-13T20:11:13.334Z,58.07
2023-02-13T20:13:40.611Z,57.95
2023-02-13T20:16:11.127Z,58.05
2023-02-13T20:18:39.605Z,57.79
2023-02-13T20:21:10.794Z,57.63
2023-02-13T20:23:38.386Z,57.79
2023-02-13T20:26:07.624Z,57.81
2023-02-13T20:28:34.594Z,57.87
2023-02-13T20:31:03.880Z,57.90
2023-02-13T20:33:31.161Z,58.01
2023-02-13T20:35:58.073Z,58.10
2023-02-13T20:38:26.399Z,58.09
2023-02-13T20:40:53.258Z,57.96
2023-02-13T20:43:21.327Z,58.15
2023-02-13T20:45:48.271Z,58.34
2023-02-13T20:48:15.159Z,58.58
2023-02-13T20:50:42.118Z,58.63
2023-02-13T20:53:10.021Z,58.51
2023-02-13T20:55:38.357Z,58.54
2023-02-13T20:58:05.235Z,58.65
2023-02-13T21:00:32.237Z,58.81
2023-02-13T21:02:59.186Z,58.76
2023-02-13T21:05:26.188Z,58.87
2023-02-13T21:07:53.084Z,58.92
2023-02-13T21:10:19.949Z,58.89
2023-02-13T21:12:48.249Z,59.34
2023-02-13T21:15:15.321Z,59.34
2023-02-13T21:17:42.228Z,59.09
2023-02-13T21:20:10.459Z,59.31
2023-02-13T21:22:37.398Z,59.47
2023-02-13T21:25:04.841Z,59.39
2023-02-13T21:27:31.720Z,59.91
2023-02-13T21:30:00.066Z,59.80
2023-02-13T21:32:27.032Z,59.86
2023-02-13T21:34:56.067Z,60.21
2023-02-13T21:37:22.972Z,60.06
2023-02-13T21:39:49.879Z,60.75
2023-02-13T21:42:16.777Z,60.50
2023-02-13T21:44:43.639Z,60.36
2023-02-13T21:47:11.954Z,60.56
2023-02-13T21:49:38.839Z,60.23
2023-02-13T21:52:05.867Z,60.90
2023-02-13T21:54:32.776Z,60.34
2023-02-13T21:57:00.005Z,60.65
2023-02-13T21:59:27.205Z,61.00
2023-02-13T22:01:54.935Z,60.66
2023-02-13T22:04:23.434Z,60.76
2023-02-13T22:06:52.607Z,60.97
2023-02-13T22:09:21.909Z,61.22
2023-02-13T22:11:51.469Z,60.94
2023-02-13T22:14:18.972Z,60.84
2023-02-13T22:16:50.108Z,60.88
2023-02-13T22:19:17.976Z,60.65
2023-02-13T22:21:46.248Z,61.30
2023-02-13T22:24:13.440Z,61.23
2023-02-13T22:26:45.036Z,60.90
2023-02-13T22:29:14.169Z,60.76
2023-02-13T22:31:41.742Z,61.39
2023-02-13T22:34:13.490Z,61.12
2023-02-13T22:36:41.207Z,61.19
2023-02-13T22:39:11.139Z,60.84
2023-02-13T22:41:38.136Z,60.72
2023-02-13T22:44:05.366Z,60.81
2023-02-13T22:46:34.334Z,61.12
2023-02-13T22:49:01.858Z,61.37
2023-02-13T22:51:33.185Z,61.21
2023-02-13T22:54:00.631Z,61.79
2023-02-13T22:56:30.580Z,61.56
2023-02-13T22:58:57.595Z,61.38
2023-02-13T23:01:27.180Z,61.78
2023-02-13T23:03:55.466Z,61.81
2023-02-13T23:06:23.347Z,61.31
2023-02-13T23:08:52.628Z,61.48
2023-02-13T23:11:40.706Z,61.40
2023-02-13T23:14:10.203Z,61.73
2023-02-13T23:16:57.902Z,61.54
2023-02-13T23:19:25.457Z,61.60
2023-02-13T23:21:52.364Z,62.23
2023-02-13T23:24:19.259Z,61.88
2023-02-13T23:26:46.154Z,61.82
2023-02-13T23:29:14.459Z,61.86
2023-02-13T23:31:41.474Z,61.97
2023-02-13T23:34:08.487Z,62.11
2023-02-13T23:36:35.432Z,61.80
2023-02-13T23:39:02.546Z,62.27
2023-02-13T23:41:29.548Z,61.74
2023-02-13T23:43:56.449Z,62.00
2023-02-13T23:46:24.779Z,62.23
2023-02-13T23:48:51.695Z,61.51
2023-02-13T23:51:18.694Z,61.66
2023-02-13T23:53:45.762Z,61.90
2023-02-13T23:56:12.616Z,62.29
2023-02-13T23:58:39.522Z,62.30
